createdAt,value
2022-12-31T00:02:28.815Z,36.67
2022-12-31T00:12:40.064Z,35.57
2022-12-31T00:17:44.673Z,36.53
2022-12-31T00:22:49.638Z,36.76
2022-12-31T00:27:55.785Z,37.01
2022-12-31T00:33:00.931Z,35.52
2022-12-31T00:38:06.127Z,33.60
2022-12-31T00:43:10.638Z,33.97
2022-12-31T00:48:17.195Z,34.12
2022-12-31T00:53:21.819Z,33.39
2022-12-31T00:58:26.903Z,32.22
2022-12-31T01:03:31.903Z,33.19
2022-12-31T01:08:37.012Z,34.05
2022-12-31T01:13:41.497Z,33.41
2022-12-31T01:18:46.937Z,32.70
2022-12-31T01:23:52.150Z,32.78
2022-12-31T01:28:57.643Z,33.57
2022-12-31T01:34:02.828Z,32.25
2022-12-31T01:39:11.637Z,32.77
2022-12-31T01:44:28.923Z,32.32
2022-12-31T01:49:48.547Z,32.18
2022-12-31T01:55:01.329Z,32.64
2022-12-31T02:00:08.092Z,32.60
2022-12-31T02:05:23.684Z,32.23
2022-12-31T02:10:28.935Z,32.36
2022-12-31T02:15:50.687Z,32.30
2022-12-31T02:21:01.648Z,31.71
2022-12-31T02:26:37.703Z,32.30
2022-12-31T02:31:53.867Z,31.90
2022-12-31T02:37:03.904Z,31.69
2022-12-31T02:42:08.913Z,31.73
2022-12-31T02:47:48.714Z,31.96
2022-12-31T02:53:11.493Z,31.63
2022-12-31T02:58:23.185Z,31.42
2022-12-31T03:03:29.533Z,31.85
2022-12-31T03:08:54.029Z,31.92
2022-12-31T03:13:58.866Z,31.53
2022-12-31T03:19:32.547Z,31.99
2022-12-31T03:24:55.228Z,31.66
2022-12-31T03:29:59.941Z,31.88
2022-12-31T03:35:05.960Z,31.13
2022-12-31T03:40:12.770Z,31.10
2022-12-31T03:45:18.771Z,31.32
2022-12-31T03:50:23.481Z,31.06
2022-12-31T03:55:29.388Z,30.26
2022-12-31T04:00:34.120Z,29.97
2022-12-31T04:05:38.915Z,29.12
2022-12-31T04:10:47.100Z,27.60
2022-12-31T04:15:53.264Z,26.31
2022-12-31T04:21:02.806Z,26.00
2022-12-31T04:26:07.683Z,26.01
2022-12-31T04:31:12.677Z,25.84
2022-12-31T04:36:17.587Z,25.26
2022-12-31T04:41:22.552Z,24.52
2022-12-31T04:46:30.705Z,24.42
2022-12-31T04:51:36.112Z,22.97
2022-12-31T04:56:41.808Z,23.75
2022-12-31T05:01:46.688Z,22.34
2022-12-31T05:06:51.636Z,24.38
2022-12-31T05:11:56.426Z,22.62
2022-12-31T05:17:02.350Z,22.09
2022-12-31T05:22:25.369Z,22.61
2022-12-31T05:27:34.205Z,23.44
2022-12-31T05:32:42.158Z,23.06
2022-12-31T05:37:48.144Z,23.28
2022-12-31T05:42:53.986Z,22.96
2022-12-31T05:47:58.690Z,22.43
2022-12-31T05:53:03.463Z,21.63
2022-12-31T05:58:07.662Z,22.73
2022-12-31T06:03:12.798Z,21.70
2022-12-31T06:08:17.621Z,21.60
2022-12-31T06:13:21.751Z,21.26
2022-12-31T06:18:26.567Z,21.66
2022-12-31T06:23:31.817Z,21.23
2022-12-31T06:28:37.584Z,22.65
2022-12-31T06:33:42.739Z,24.70
2022-12-31T06:38:47.612Z,22.68
2022-12-31T06:43:56.906Z,23.78
2022-12-31T06:49:03.666Z,24.38
2022-12-31T06:54:08.577Z,26.09
2022-12-31T06:59:25.678Z,26.20
2022-12-31T07:04:43.727Z,26.53
2022-12-31T07:10:20.589Z,24.87
2022-12-31T07:16:16.261Z,26.32
2022-12-31T07:21:32.389Z,25.88
2022-12-31T07:26:37.544Z,26.06
2022-12-31T07:31:57.683Z,26.40
2022-12-31T07:37:05.512Z,25.44
2022-12-31T07:42:25.669Z,25.76
2022-12-31T07:47:34.591Z,24.70
2022-12-31T07:52:41.669Z,24.66
2022-12-31T07:57:54.860Z,25.60
2022-12-31T08:03:18.364Z,26.07
2022-12-31T08:09:15.746Z,26.22
2022-12-31T08:14:21.403Z,25.98
2022-12-31T08:19:32.018Z,26.37
2022-12-31T08:24:53.476Z,25.84
2022-12-31T08:30:10.868Z,26.02
2022-12-31T08:35:49.604Z,25.55
2022-12-31T08:41:06.876Z,26.10
2022-12-31T08:46:31.268Z,26.00
2022-12-31T08:51:36.407Z,25.48
2022-12-31T08:56:54.999Z,25.51
2022-12-31T09:02:26.220Z,25.89
2022-12-31T09:07:42.729Z,26.09
2022-12-31T09:13:05.902Z,26.81
2022-12-31T09:18:13.489Z,26.55
2022-12-31T09:23:18.513Z,26.45
2022-12-31T09:28:35.259Z,26.11
2022-12-31T09:34:05.884Z,26.18
2022-12-31T09:39:32.048Z,26.58
2022-12-31T09:44:46.592Z,26.57
2022-12-31T09:50:29.536Z,27.07
2022-12-31T09:55:36.936Z,26.94
2022-12-31T10:00:50.551Z,26.89
2022-12-31T10:06:23.083Z,26.80
2022-12-31T10:11:30.793Z,26.71
2022-12-31T10:17:02.950Z,27.04
2022-12-31T10:22:20.070Z,27.02
2022-12-31T10:27:34.652Z,26.96
2022-12-31T10:32:38.774Z,27.05
2022-12-31T10:38:12.370Z,27.05
2022-12-31T10:43:35.092Z,27.27
2022-12-31T10:49:19.349Z,27.39
2022-12-31T10:54:48.195Z,27.04
2022-12-31T11:00:14.830Z,27.23
2022-12-31T11:05:40.919Z,27.39
2022-12-31T11:11:07.191Z,26.86
2022-12-31T11:16:32.053Z,27.55
2022-12-31T11:22:20.108Z,27.77
2022-12-31T11:27:47.683Z,27.49
2022-12-31T11:33:12.388Z,27.65
2022-12-31T11:38:23.435Z,27.57
2022-12-31T11:43:36.937Z,27.45
2022-12-31T11:49:11.062Z,27.40
2022-12-31T11:54:52.979Z,27.46
2022-12-31T12:00:20.191Z,27.41
2022-12-31T12:05:28.196Z,28.68
2022-12-31T12:10:48.259Z,28.63
2022-12-31T12:16:07.972Z,28.46
2022-12-31T12:21:25.539Z,28.27
2022-12-31T12:26:46.687Z,29.19
2022-12-31T12:32:08.301Z,28.83
2022-12-31T12:37:35.794Z,30.07
2022-12-31T12:42:51.815Z,29.18
2022-12-31T12:48:02.515Z,30.00
2022-12-31T12:53:33.560Z,29.73
2022-12-31T12:59:02.659Z,30.02
2022-12-31T13:04:44.078Z,30.12
2022-12-31T13:10:07.570Z,30.33
2022-12-31T13:15:35.934Z,30.50
2022-12-31T13:20:43.376Z,29.34
2022-12-31T13:26:10.111Z,29.77
2022-12-31T13:31:24.468Z,30.43
2022-12-31T13:36:30.352Z,30.00
2022-12-31T13:41:52.858Z,29.36
2022-12-31T13:47:07.173Z,31.01
2022-12-31T13:52:34.218Z,30.79
2022-12-31T13:57:56.328Z,30.23
2022-12-31T14:03:41.988Z,29.84
2022-12-31T14:08:48.063Z,30.90
2022-12-31T14:13:58.787Z,31.43
2022-12-31T14:19:25.975Z,31.21
2022-12-31T14:24:52.039Z,30.31
2022-12-31T14:30:00.728Z,30.31
2022-12-31T14:35:29.811Z,29.63
2022-12-31T14:41:04.395Z,30.27
2022-12-31T14:46:15.452Z,30.74
2022-12-31T14:51:21.374Z,30.40
2022-12-31T14:56:32.912Z,31.06
2022-12-31T15:01:47.483Z,30.74
2022-12-31T15:07:01.903Z,30.81
2022-12-31T15:12:31.943Z,30.42
2022-12-31T15:17:47.453Z,31.08
2022-12-31T15:22:55.086Z,31.81
2022-12-31T15:28:05.562Z,31.44
2022-12-31T15:33:35.211Z,33.19
2022-12-31T15:38:42.587Z,31.83
2022-12-31T15:44:00.191Z,32.39
2022-12-31T15:49:15.826Z,30.80
2022-12-31T15:54:47.148Z,30.21
2022-12-31T16:00:05.535Z,30.71
2022-12-31T16:05:29.759Z,31.05
2022-12-31T16:10:35.367Z,30.60
2022-12-31T16:15:42.136Z,31.71
2022-12-31T16:20:49.941Z,31.56
2022-12-31T16:26:01.721Z,30.83
2022-12-31T16:31:09.728Z,31.56
2022-12-31T16:36:23.489Z,31.83
2022-12-31T16:41:42.609Z,34.16
2022-12-31T16:46:49.580Z,31.42
2022-12-31T16:52:00.547Z,32.26
2022-12-31T16:57:07.712Z,31.93
2022-12-31T17:02:22.872Z,30.38
2022-12-31T17:07:33.581Z,32.07
2022-12-31T17:13:25.542Z,31.05
2022-12-31T17:18:22.487Z,32.46
2022-12-31T17:23:36.700Z,31.83
2022-12-31T17:28:49.731Z,31.46
2022-12-31T17:34:15.388Z,31.89
2022-12-31T17:39:23.618Z,32.58
2022-12-31T17:44:31.749Z,33.09
2022-12-31T17:49:38.240Z,33.88
2022-12-31T17:54:44.072Z,33.24
2022-12-31T17:59:48.705Z,33.08
2022-12-31T18:04:54.575Z,32.52
2022-12-31T18:09:59.498Z,33.27
2022-12-31T18:15:05.126Z,33.20
2022-12-31T18:20:10.197Z,32.30
2022-12-31T18:25:20.480Z,32.39
2022-12-31T18:30:25.068Z,33.03
2022-12-31T18:36:07.255Z,32.29
2022-12-31T18:41:01.979Z,32.94
2022-12-31T18:46:06.691Z,33.45
2022-12-31T18:51:31.032Z,32.90
2022-12-31T18:56:38.571Z,32.52
2022-12-31T19:01:46.659Z,32.77
2022-12-31T19:06:51.568Z,33.08
2022-12-31T19:11:56.123Z,32.79
2022-12-31T19:22:03.910Z,32.83
2022-12-31T19:27:08.463Z,32.45
2022-12-31T19:32:13.019Z,32.78
2022-12-31T19:37:17.664Z,33.04
2022-12-31T19:42:22.277Z,33.62
2022-12-31T19:47:26.823Z,33.08
2022-12-31T19:52:30.919Z,31.58
2022-12-31T19:57:35.555Z,33.38
2022-12-31T20:02:40.667Z,34.97
2022-12-31T20:07:45.393Z,33.29
2022-12-31T20:12:50.225Z,33.96
2022-12-31T20:17:55.530Z,33.21
2022-12-31T20:23:00.373Z,32.48
2022-12-31T20:28:04.904Z,33.85
2022-12-31T20:33:12.144Z,33.29
2022-12-31T20:38:20.303Z,33.09
2022-12-31T20:43:24.915Z,32.83
2022-12-31T20:48:29.555Z,33.42
2022-12-31T20:53:34.137Z,33.85
2022-12-31T20:58:38.786Z,34.00
2022-12-31T21:09:11.273Z,33.53
2022-12-31T21:14:16.600Z,34.09
2022-12-31T21:19:21.230Z,33.77
2022-12-31T21:24:25.912Z,33.47
2022-12-31T21:29:34.552Z,33.68
2022-12-31T21:34:40.071Z,33.27
2022-12-31T21:39:44.611Z,33.09
2022-12-31T21:44:49.401Z,32.97
2022-12-31T21:49:54.001Z,33.29
2022-12-31T21:55:18.331Z,33.02
2022-12-31T22:00:42.974Z,33.30
2022-12-31T22:05:57.053Z,34.21
2022-12-31T22:11:01.556Z,33.81
2022-12-31T22:16:07.257Z,34.08
2022-12-31T22:21:27.902Z,34.09
2022-12-31T22:26:32.514Z,34.66
2022-12-31T22:31:37.130Z,34.31
2022-12-31T22:36:41.863Z,35.02
2022-12-31T22:41:47.661Z,34.45
2022-12-31T22:46:52.230Z,33.89
2022-12-31T22:52:00.724Z,34.09
2022-12-31T22:57:08.139Z,33.74
2022-12-31T23:02:13.206Z,34.34
2022-12-31T23:07:17.271Z,33.33
2022-12-31T23:12:21.850Z,35.43
2022-12-31T23:17:47.216Z,36.16
2022-12-31T23:23:09.995Z,35.68
2022-12-31T23:28:17.592Z,35.50
2022-12-31T23:33:25.623Z,36.05
2022-12-31T23:38:30.145Z,35.98
2022-12-31T23:43:34.708Z,36.13
2022-12-31T23:48:39.306Z,35.81
2022-12-31T23:53:43.945Z,36.07
2022-12-31T23:58:48.957Z,34.57
